createdAt,value
2017-11-18T00:00:30.369Z,98659.14
2017-11-18T00:01:35.162Z,98653.73
2017-11-18T00:02:39.909Z,98654.30
2017-11-18T00:03:44.664Z,98654.31
2017-11-18T00:04:49.452Z,98650.59
2017-11-18T00:05:55.089Z,98647.73
2017-11-18T00:07:00.120Z,98647.53
2017-11-18T00:08:04.821Z,98646.31
2017-11-18T00:09:10.532Z,98645.23
2017-11-18T00:10:15.254Z,98639.90
2017-11-18T00:11:20.174Z,98642.80
2017-11-18T00:12:24.922Z,98643.93
2017-11-18T00:13:30.083Z,98648.34
2017-11-18T00:14:34.798Z,98651.45
2017-11-18T00:15:39.474Z,98646.16
2017-11-18T00:16:44.176Z,98646.09
2017-11-18T00:17:48.855Z,98648.55
2017-11-18T00:18:53.584Z,98645.33
2017-11-18T00:19:59.628Z,98646.30
2017-11-18T00:21:04.388Z,98645.43
2017-11-18T00:22:09.128Z,98647.70
2017-11-18T00:23:13.877Z,98640.88
2017-11-18T00:24:18.718Z,98640.88
2017-11-18T00:25:23.566Z,98644.06
2017-11-18T00:26:28.602Z,98641.44
2017-11-18T00:27:33.308Z,98634.62
2017-11-18T00:28:38.031Z,98640.87
2017-11-18T00:29:42.788Z,98637.96
2017-11-18T00:30:47.538Z,98637.52
2017-11-18T00:31:52.438Z,98639.94
2017-11-18T00:32:57.433Z,98637.37
2017-11-18T00:34:02.210Z,98649.38
2017-11-18T00:35:06.917Z,98644.11
2017-11-18T00:36:11.631Z,98646.97
2017-11-18T00:37:16.361Z,98637.39
2017-11-18T00:38:21.141Z,98641.63
2017-11-18T00:39:26.185Z,98639.08
2017-11-18T00:40:30.898Z,98638.81
2017-11-18T00:41:35.632Z,98648.72
2017-11-18T00:42:40.357Z,98649.18
2017-11-18T00:43:45.066Z,98639.59
2017-11-18T00:44:49.782Z,98641.69
2017-11-18T00:45:54.761Z,98649.88
2017-11-18T00:46:59.470Z,98649.03
2017-11-18T00:48:05.024Z,98642.91
2017-11-18T00:49:09.764Z,98638.11
2017-11-18T00:50:14.463Z,98637.80
2017-11-18T00:51:19.233Z,98638.36
2017-11-18T00:52:24.298Z,98641.94
2017-11-18T00:53:29.033Z,98630.97
2017-11-18T00:54:33.728Z,98633.18
2017-11-18T00:55:38.660Z,98638.00
2017-11-18T00:56:43.397Z,98640.32
2017-11-18T00:57:48.124Z,98639.90
2017-11-18T00:58:53.510Z,98634.02
2017-11-18T00:59:58.265Z,98641.03
2017-11-18T01:01:03.007Z,98644.30
2017-11-18T01:02:08.524Z,98634.94
2017-11-18T01:03:13.384Z,98625.98
2017-11-18T01:04:18.225Z,98629.66
2017-11-18T01:05:23.296Z,98631.27
2017-11-18T01:06:27.922Z,98624.36
2017-11-18T01:07:32.625Z,98628.34
2017-11-18T01:08:37.356Z,98631.63
2017-11-18T01:09:42.126Z,98626.38
2017-11-18T01:10:46.861Z,98631.67
2017-11-18T01:11:51.834Z,98632.59
2017-11-18T01:12:56.644Z,98630.14
2017-11-18T01:14:01.494Z,98634.68
2017-11-18T01:15:06.326Z,98633.03
2017-11-18T01:16:11.165Z,98634.69
2017-11-18T01:17:16.368Z,98638.69
2017-11-18T01:18:21.523Z,98634.05
2017-11-18T01:19:26.364Z,98635.75
2017-11-18T01:20:31.145Z,98628.03
2017-11-18T01:21:36.046Z,98633.59
2017-11-18T01:22:40.861Z,98626.25
2017-11-18T01:23:45.710Z,98626.00
2017-11-18T01:24:50.804Z,98630.61
2017-11-18T01:25:55.662Z,98623.58
2017-11-18T01:27:00.501Z,98619.38
2017-11-18T01:28:05.413Z,98617.67
2017-11-18T01:29:10.259Z,98620.45
2017-11-18T01:30:15.166Z,98614.81
2017-11-18T01:31:20.182Z,98623.17
2017-11-18T01:32:25.072Z,98616.49
2017-11-18T01:33:29.642Z,98620.14
2017-11-18T01:34:34.247Z,98618.34
2017-11-18T01:35:38.884Z,98613.86
2017-11-18T01:36:43.604Z,98614.61
2017-11-18T01:37:48.377Z,98620.05
2017-11-18T01:38:53.076Z,98617.88
2017-11-18T01:39:57.726Z,98612.23
2017-11-18T01:41:02.373Z,98614.89
2017-11-18T01:42:07.126Z,98627.66
2017-11-18T01:43:12.153Z,98623.06
2017-11-18T01:44:17.020Z,98624.78
2017-11-18T01:45:21.867Z,98612.67
2017-11-18T01:46:26.769Z,98618.80
2017-11-18T01:47:31.582Z,98614.45
2017-11-18T01:48:36.348Z,98613.58
2017-11-18T01:49:41.465Z,98614.05
2017-11-18T01:50:46.240Z,98611.47
2017-11-18T01:51:50.890Z,98606.78
2017-11-18T01:52:55.751Z,98607.81
2017-11-18T01:54:00.462Z,98608.00
2017-11-18T01:55:05.174Z,98601.91
2017-11-18T01:56:10.281Z,98598.94
2017-11-18T01:57:15.140Z,98593.98
2017-11-18T01:58:20.059Z,98585.66
2017-11-18T01:59:24.903Z,98582.60
2017-11-18T02:16:39.908Z,98562.02
2017-11-18T02:17:44.691Z,98559.09
2017-11-18T02:18:49.476Z,98558.17
2017-11-18T02:19:54.281Z,98552.87
2017-11-18T02:20:59.126Z,98552.53
2017-11-18T02:22:04.244Z,98549.90
2017-11-18T02:23:09.092Z,98552.61
2017-11-18T02:24:17.925Z,98546.64
2017-11-18T02:25:22.752Z,98551.30
2017-11-18T02:26:28.187Z,98546.30
2017-11-18T02:27:33.489Z,98552.64
2017-11-18T02:28:38.244Z,98554.16
2017-11-18T02:29:43.137Z,98552.66
2017-11-18T02:30:47.821Z,98550.17
2017-11-18T02:31:58.365Z,98550.66
2017-11-18T02:33:03.110Z,98551.63
2017-11-18T02:34:08.089Z,98552.46
2017-11-18T02:35:12.776Z,98548.62
2017-11-18T02:36:17.601Z,98544.48
2017-11-18T02:37:22.408Z,98539.25
2017-11-18T02:38:27.154Z,98541.84
2017-11-18T02:39:31.957Z,98545.73
2017-11-18T02:40:36.959Z,98543.63
2017-11-18T02:41:41.655Z,98537.44
2017-11-18T02:42:46.419Z,98538.53
2017-11-18T02:43:51.162Z,98533.52
2017-11-18T02:44:55.845Z,98530.94
2017-11-18T02:46:00.661Z,98529.42
2017-11-18T02:47:05.653Z,98531.64
2017-11-18T02:48:10.372Z,98528.59
2017-11-18T02:49:15.131Z,98533.77
2017-11-18T02:50:20.593Z,98532.55
2017-11-18T02:51:25.273Z,98536.13
2017-11-18T02:52:30.071Z,98529.30
2017-11-18T02:53:35.131Z,98527.94
2017-11-18T02:54:39.812Z,98522.32
2017-11-18T02:55:44.548Z,98524.34
2017-11-18T02:56:49.238Z,98528.23
2017-11-18T02:57:54.070Z,98523.94
2017-11-18T02:58:58.804Z,98527.30
2017-11-18T03:00:05.433Z,98524.41
2017-11-18T03:01:10.146Z,98514.90
2017-11-18T03:02:14.806Z,98515.56
2017-11-18T03:03:19.479Z,98509.26
2017-11-18T03:04:24.189Z,98511.85
2017-11-18T03:05:28.934Z,98510.05
2017-11-18T03:06:33.996Z,98509.28
2017-11-18T03:07:38.694Z,98504.67
2017-11-18T03:08:43.403Z,98504.88
2017-11-18T03:09:48.076Z,98507.30
2017-11-18T03:10:53.353Z,98504.30
2017-11-18T03:11:58.013Z,98498.13
2017-11-18T03:13:03.296Z,98503.16
2017-11-18T03:14:08.024Z,98492.89
2017-11-18T03:15:12.751Z,98493.03
2017-11-18T03:16:17.465Z,98485.84
2017-11-18T03:17:22.023Z,98487.91
2017-11-18T03:18:26.741Z,98490.45
2017-11-18T03:19:31.694Z,98484.75
2017-11-18T03:20:36.376Z,98487.06
2017-11-18T03:21:41.204Z,98482.84
2017-11-18T03:22:45.876Z,98486.52
2017-11-18T03:23:50.581Z,98487.48
2017-11-18T03:24:55.366Z,98489.55
2017-11-18T03:26:00.380Z,98487.20
2017-11-18T03:27:05.115Z,98492.91
2017-11-18T03:28:09.779Z,98487.33
2017-11-18T03:29:14.522Z,98480.12
2017-11-18T03:30:19.281Z,98481.70
2017-11-18T03:31:23.927Z,98485.00
2017-11-18T03:32:28.863Z,98482.97
2017-11-18T03:33:33.625Z,98480.47
2017-11-18T03:34:38.314Z,98479.47
2017-11-18T03:35:43.725Z,98477.75
2017-11-18T03:36:48.417Z,98476.16
2017-11-18T03:37:53.095Z,98476.13
2017-11-18T03:38:58.075Z,98472.08
2017-11-18T03:40:02.789Z,98471.70
2017-11-18T03:41:07.578Z,98478.80
2017-11-18T03:42:12.406Z,98482.89
2017-11-18T03:43:17.228Z,98480.78
2017-11-18T03:44:21.868Z,98474.91
2017-11-18T03:45:26.886Z,98478.00
2017-11-18T03:46:31.787Z,98475.36
2017-11-18T03:47:36.507Z,98469.62
2017-11-18T03:48:41.150Z,98480.18
2017-11-18T03:49:46.005Z,98476.99
2017-11-18T03:50:50.595Z,98476.02
2017-11-18T03:51:55.459Z,98476.08
2017-11-18T03:52:59.945Z,98475.84
2017-11-18T03:54:04.535Z,98467.93
2017-11-18T03:55:09.178Z,98470.27
2017-11-18T03:56:13.881Z,98477.17
2017-11-18T03:57:18.593Z,98478.27
2017-11-18T03:58:23.630Z,98467.27
2017-11-18T03:59:28.354Z,98469.37
2017-11-18T04:00:34.289Z,98472.62
2017-11-18T04:01:39.459Z,98467.09
2017-11-18T04:02:44.207Z,98465.56
2017-11-18T04:03:49.048Z,98467.25
2017-11-18T04:04:54.696Z,98473.47
2017-11-18T04:05:59.405Z,98469.79
2017-11-18T04:07:04.181Z,98466.92
2017-11-18T04:08:08.984Z,98469.97
2017-11-18T04:09:13.833Z,98465.98
2017-11-18T04:10:18.654Z,98455.33
2017-11-18T04:11:23.768Z,98453.61
2017-11-18T04:12:28.587Z,98456.28
2017-11-18T04:13:33.347Z,98457.77
2017-11-18T04:14:38.134Z,98457.25
2017-11-18T04:15:42.903Z,98451.63
2017-11-18T04:16:47.675Z,98449.98
2017-11-18T04:17:52.722Z,98452.28
2017-11-18T04:18:57.531Z,98455.05
2017-11-18T04:20:02.354Z,98451.76
2017-11-18T04:21:07.806Z,98450.55
2017-11-18T04:22:12.673Z,98458.52
2017-11-18T04:23:17.448Z,98462.91
2017-11-18T04:24:22.515Z,98459.73
2017-11-18T04:25:27.270Z,98461.14
2017-11-18T04:26:32.081Z,98457.75
2017-11-18T04:27:36.828Z,98459.64
2017-11-18T04:28:41.662Z,98454.27
2017-11-18T04:29:46.487Z,98454.37
2017-11-18T04:30:51.831Z,98457.55
2017-11-18T04:31:56.577Z,98460.86
2017-11-18T04:33:01.679Z,98460.20
2017-11-18T04:34:06.633Z,98456.89
2017-11-18T04:35:11.386Z,98449.30
2017-11-18T04:36:16.178Z,98449.91
2017-11-18T04:37:21.231Z,98450.20
2017-11-18T04:38:26.038Z,98442.55
2017-11-18T04:39:31.207Z,98445.94
2017-11-18T04:40:36.030Z,98440.59
2017-11-18T04:41:40.789Z,98449.84
2017-11-18T04:42:45.653Z,98442.25
2017-11-18T04:43:51.331Z,98442.65
2017-11-18T04:44:56.154Z,98438.45
2017-11-18T04:46:00.804Z,98439.41
2017-11-18T04:47:05.504Z,98441.65
2017-11-18T04:48:10.219Z,98439.90
2017-11-18T04:49:14.872Z,98435.23
2017-11-18T04:50:20.108Z,98436.10
2017-11-18T04:51:24.879Z,98436.20
2017-11-18T04:52:29.579Z,98432.97
2017-11-18T04:53:34.250Z,98431.17
2017-11-18T04:54:38.985Z,98425.76
2017-11-18T04:55:43.679Z,98421.97
2017-11-18T04:56:48.649Z,98425.63
2017-11-18T04:57:53.339Z,98421.41
2017-11-18T04:58:58.041Z,98419.36
2017-11-18T05:00:02.812Z,98415.83
2017-11-18T05:15:40.427Z,98396.85
2017-11-18T05:16:45.193Z,98397.89
2017-11-18T05:17:49.971Z,98403.22
2017-11-18T05:18:55.452Z,98400.16
2017-11-18T05:20:00.292Z,98396.00
2017-11-18T05:21:05.397Z,98408.26
2017-11-18T05:22:10.187Z,98410.31
2017-11-18T05:23:14.896Z,98406.13
2017-11-18T05:24:19.530Z,98407.79
2017-11-18T05:25:25.127Z,98409.45
2017-11-18T05:26:29.780Z,98409.39
2017-11-18T05:27:34.732Z,98400.05
2017-11-18T05:28:39.511Z,98410.77
2017-11-18T05:29:44.373Z,98406.21
2017-11-18T05:30:49.208Z,98401.78
2017-11-18T05:31:53.983Z,98397.59
2017-11-18T05:32:58.773Z,98402.16
2017-11-18T05:34:03.907Z,98397.77
2017-11-18T05:35:08.689Z,98397.11
2017-11-18T05:36:13.515Z,98394.86
2017-11-18T05:37:18.331Z,98390.83
2017-11-18T05:38:23.103Z,98399.46
2017-11-18T05:39:27.921Z,98393.55
2017-11-18T05:40:33.040Z,98400.36
2017-11-18T05:41:37.967Z,98392.08
2017-11-18T05:42:42.720Z,98391.56
2017-11-18T05:43:47.443Z,98384.42
2017-11-18T05:44:52.029Z,98378.54
2017-11-18T05:45:56.738Z,98387.78
2017-11-18T05:47:01.762Z,98387.94
2017-11-18T05:48:06.444Z,98387.05
2017-11-18T05:49:11.174Z,98385.87
2017-11-18T05:50:18.075Z,98392.77
2017-11-18T05:51:22.791Z,98389.97
2017-11-18T05:52:27.511Z,98380.55
2017-11-18T05:53:32.582Z,98382.83
2017-11-18T05:54:37.356Z,98377.65
2017-11-18T05:55:42.035Z,98383.42
2017-11-18T05:56:46.800Z,98384.84
2017-11-18T05:57:51.480Z,98384.93
2017-11-18T05:58:56.214Z,98380.18
2017-11-18T06:00:01.384Z,98377.31
2017-11-18T06:01:06.160Z,98378.14
2017-11-18T06:02:10.940Z,98373.91
2017-11-18T06:03:15.758Z,98371.14
2017-11-18T06:04:21.130Z,98373.17
2017-11-18T06:05:25.911Z,98364.08
2017-11-18T06:06:31.028Z,98366.57
2017-11-18T06:07:35.880Z,98371.00
2017-11-18T06:08:40.696Z,98369.09
2017-11-18T06:09:45.494Z,98368.37
2017-11-18T06:10:50.257Z,98375.15
2017-11-18T06:11:55.024Z,98367.50
2017-11-18T06:13:00.023Z,98368.70
2017-11-18T06:14:04.744Z,98372.88
2017-11-18T06:15:09.523Z,98377.22
2017-11-18T06:16:14.290Z,98369.98
2017-11-18T06:17:19.000Z,98378.89
2017-11-18T06:18:23.759Z,98379.89
2017-11-18T06:19:28.800Z,98378.66
2017-11-18T06:20:33.535Z,98377.29
2017-11-18T06:21:38.428Z,98379.21
2017-11-18T06:22:43.363Z,98371.78
2017-11-18T06:23:48.135Z,98372.70
2017-11-18T06:24:52.761Z,98372.16
2017-11-18T06:25:57.912Z,98368.16
2017-11-18T06:27:03.904Z,98364.83
2017-11-18T06:28:08.756Z,98361.86
2017-11-18T06:29:13.574Z,98355.87
2017-11-18T06:30:18.817Z,98354.30
2017-11-18T06:31:23.556Z,98362.36
2017-11-18T06:32:28.540Z,98361.70
2017-11-18T06:33:33.471Z,98361.31
2017-11-18T06:34:38.472Z,98363.72
2017-11-18T06:35:43.714Z,98368.03
2017-11-18T06:36:48.634Z,98373.19
2017-11-18T06:37:53.468Z,98367.98
2017-11-18T06:38:58.641Z,98366.68
2017-11-18T06:40:03.498Z,98369.90
2017-11-18T06:41:08.316Z,98362.96
2017-11-18T06:42:13.185Z,98369.64
2017-11-18T06:43:18.060Z,98371.15
2017-11-18T06:44:22.879Z,98377.52
2017-11-18T06:45:27.990Z,98375.40
2017-11-18T06:46:32.877Z,98374.72
2017-11-18T06:47:37.738Z,98380.36
2017-11-18T06:48:42.551Z,98381.62
2017-11-18T06:49:48.225Z,98383.29
2017-11-18T06:50:53.035Z,98382.76
2017-11-18T06:51:58.250Z,98381.92
2017-11-18T06:53:03.056Z,98381.41
2017-11-18T06:54:07.807Z,98379.13
2017-11-18T06:55:12.797Z,98382.52
2017-11-18T06:56:17.522Z,98381.55
2017-11-18T06:57:22.189Z,98383.58
2017-11-18T06:58:27.222Z,98370.78
2017-11-18T06:59:32.086Z,98370.70
2017-11-18T07:00:36.984Z,98370.19
2017-11-18T07:01:41.920Z,98370.89
2017-11-18T07:02:46.728Z,98369.16
2017-11-18T07:03:51.620Z,98368.24
2017-11-18T07:04:57.025Z,98372.20
2017-11-18T07:06:01.889Z,98369.77
2017-11-18T07:07:06.829Z,98364.70
2017-11-18T07:08:12.120Z,98364.35
2017-11-18T07:09:16.997Z,98362.36
2017-11-18T07:10:21.894Z,98360.22
2017-11-18T07:11:27.343Z,98365.42
2017-11-18T07:12:32.341Z,98366.83
2017-11-18T07:13:37.303Z,98361.09
2017-11-18T07:14:42.205Z,98366.67
2017-11-18T07:15:46.952Z,98364.86
2017-11-18T07:16:51.733Z,98365.58
2017-11-18T07:17:56.888Z,98368.63
2017-11-18T07:19:01.616Z,98369.52
2017-11-18T07:20:06.460Z,98363.54
2017-11-18T07:21:11.311Z,98370.75
2017-11-18T07:22:16.077Z,98369.45
2017-11-18T07:23:21.080Z,98376.86
2017-11-18T07:24:26.342Z,98370.16
2017-11-18T07:25:31.187Z,98373.21
2017-11-18T07:26:35.997Z,98368.81
2017-11-18T07:27:40.833Z,98362.84
2017-11-18T07:28:45.629Z,98368.55
2017-11-18T07:29:50.694Z,98367.59
2017-11-18T07:30:56.244Z,98372.98
2017-11-18T07:32:01.254Z,98369.44
2017-11-18T07:33:06.416Z,98370.03
2017-11-18T07:34:22.522Z,98364.98
2017-11-18T07:35:27.617Z,98367.20
2017-11-18T07:36:32.815Z,98371.16
2017-11-18T07:37:37.703Z,98372.34
2017-11-18T07:38:42.501Z,98376.38
2017-11-18T07:39:47.289Z,98376.67
2017-11-18T07:40:52.169Z,98378.36
2017-11-18T07:41:56.939Z,98375.89
2017-11-18T07:43:02.145Z,98381.22
2017-11-18T07:44:07.071Z,98370.34
2017-11-18T07:45:11.901Z,98379.22
2017-11-18T07:46:16.703Z,98375.61
2017-11-18T07:47:21.413Z,98382.34
2017-11-18T07:48:26.953Z,98383.05
2017-11-18T07:49:32.136Z,98379.20
2017-11-18T07:50:36.918Z,98377.23
2017-11-18T07:51:41.937Z,98374.00
2017-11-18T07:52:46.715Z,98375.91
2017-11-18T07:53:51.765Z,98375.44
2017-11-18T07:54:56.567Z,98371.53
2017-11-18T07:56:02.980Z,98369.32
2017-11-18T07:57:08.983Z,98372.23
2017-11-18T07:58:14.345Z,98367.05
2017-11-18T07:59:19.679Z,98367.57
2017-11-18T08:00:24.611Z,98372.63
2017-11-18T08:01:30.763Z,98374.41
2017-11-18T08:02:36.571Z,98370.20
2017-11-18T08:03:41.611Z,98368.05
2017-11-18T08:04:46.398Z,98363.61
2017-11-18T08:05:51.491Z,98367.12
2017-11-18T08:06:56.639Z,98365.04
2017-11-18T08:08:03.607Z,98362.20
2017-11-18T08:09:09.926Z,98362.64
2017-11-18T08:10:14.656Z,98364.80
2017-11-18T08:11:19.368Z,98365.94
2017-11-18T08:12:24.155Z,98361.96
2017-11-18T08:13:28.963Z,98362.86
2017-11-18T08:15:45.646Z,98358.20
2017-11-18T08:16:50.490Z,98353.16
2017-11-18T08:17:55.221Z,98351.78
2017-11-18T08:18:59.947Z,98356.30
2017-11-18T08:20:04.788Z,98353.67
2017-11-18T08:21:09.620Z,98349.21
2017-11-18T08:22:15.764Z,98349.09
2017-11-18T08:23:20.572Z,98351.77
2017-11-18T08:24:25.401Z,98349.34
2017-11-18T08:25:30.171Z,98342.14
2017-11-18T08:26:34.987Z,98339.56
2017-11-18T08:27:39.797Z,98347.13
2017-11-18T08:28:45.071Z,98339.16
2017-11-18T08:29:50.588Z,98343.17
2017-11-18T08:30:55.558Z,98343.05
2017-11-18T08:32:00.273Z,98335.27
2017-11-18T08:33:05.272Z,98344.30
2017-11-18T08:34:10.162Z,98337.59
2017-11-18T08:35:15.051Z,98334.39
2017-11-18T08:36:24.106Z,98338.70
2017-11-18T08:37:28.912Z,98344.00
2017-11-18T08:38:33.740Z,98346.14
2017-11-18T08:39:38.624Z,98345.98
2017-11-18T08:40:43.931Z,98335.16
2017-11-18T08:41:48.800Z,98338.61
2017-11-18T08:42:53.671Z,98331.79
2017-11-18T08:43:58.500Z,98326.16
2017-11-18T08:45:05.433Z,98327.99
2017-11-18T08:46:10.230Z,98331.37
2017-11-18T08:47:15.849Z,98326.89
2017-11-18T08:48:20.718Z,98323.48
2017-11-18T08:49:26.439Z,98323.13
2017-11-18T08:50:31.221Z,98314.07
2017-11-18T08:51:36.056Z,98320.66
2017-11-18T08:52:40.875Z,98323.45
2017-11-18T08:53:46.195Z,98329.38
2017-11-18T08:54:51.120Z,98322.98
2017-11-18T08:55:56.010Z,98325.00
2017-11-18T08:57:00.839Z,98317.78
2017-11-18T08:58:05.739Z,98318.78
2017-11-18T08:59:10.592Z,98320.19
2017-11-18T09:00:17.928Z,98314.35
2017-11-18T09:01:22.761Z,98315.94
2017-11-18T09:02:27.653Z,98315.50
2017-11-18T09:03:32.482Z,98321.88
2017-11-18T09:04:37.406Z,98323.54
2017-11-18T09:05:42.213Z,98318.02
2017-11-18T09:06:47.299Z,98314.35
2017-11-18T09:07:52.071Z,98314.13
2017-11-18T09:08:56.863Z,98314.03
2017-11-18T09:10:01.674Z,98312.06
2017-11-18T09:11:06.528Z,98307.52
2017-11-18T09:12:11.352Z,98309.87
2017-11-18T09:13:16.712Z,98311.77
2017-11-18T09:14:21.569Z,98310.58
2017-11-18T09:15:26.536Z,98301.56
2017-11-18T09:16:32.212Z,98306.01
2017-11-18T09:17:37.006Z,98305.53
2017-11-18T09:18:41.890Z,98307.07
2017-11-18T09:19:47.238Z,98290.08
2017-11-18T09:20:52.256Z,98292.30
2017-11-18T09:21:57.095Z,98289.00
2017-11-18T09:23:02.064Z,98290.70
2017-11-18T09:24:06.886Z,98287.92
2017-11-18T09:25:11.972Z,98282.20
2017-11-18T09:26:17.213Z,98286.52
2017-11-18T09:27:22.009Z,98286.59
2017-11-18T09:28:26.791Z,98278.66
2017-11-18T09:29:31.617Z,98287.69
2017-11-18T09:30:36.451Z,98279.85
2017-11-18T09:31:41.223Z,98283.55
2017-11-18T09:32:46.061Z,98279.39
2017-11-18T09:33:50.860Z,98278.56
2017-11-18T09:34:55.657Z,98280.84
2017-11-18T09:36:00.524Z,98281.38
2017-11-18T09:37:05.529Z,98280.22
2017-11-18T09:38:10.677Z,98275.52
2017-11-18T09:39:16.484Z,98279.92
2017-11-18T09:40:21.229Z,98271.57
2017-11-18T09:41:26.008Z,98279.69
2017-11-18T09:42:30.732Z,98283.58
2017-11-18T09:43:35.781Z,98277.44
2017-11-18T09:44:41.137Z,98282.91
2017-11-18T09:45:46.084Z,98285.48
2017-11-18T09:46:51.041Z,98282.53
2017-11-18T09:47:55.868Z,98273.69
2017-11-18T09:49:00.723Z,98276.84
2017-11-18T09:50:05.570Z,98266.09
2017-11-18T09:51:11.340Z,98269.27
2017-11-18T09:52:16.245Z,98270.03
2017-11-18T09:53:21.343Z,98270.01
2017-11-18T09:54:29.134Z,98270.09
2017-11-18T09:55:34.094Z,98274.62
2017-11-18T09:56:39.734Z,98269.20
2017-11-18T09:57:44.855Z,98263.84
2017-11-18T09:58:49.722Z,98256.56
2017-11-18T09:59:54.640Z,98263.42
2017-11-18T10:00:59.517Z,98255.13
2017-11-18T10:02:04.508Z,98253.69
2017-11-18T10:03:10.330Z,98255.32
2017-11-18T10:04:15.399Z,98256.95
2017-11-18T10:05:22.733Z,98261.28
2017-11-18T10:06:27.624Z,98256.75
2017-11-18T10:07:32.462Z,98249.27
2017-11-18T10:08:43.954Z,98244.27
2017-11-18T10:09:49.033Z,98246.56
2017-11-18T10:10:54.443Z,98241.59
2017-11-18T10:12:16.209Z,98238.59
2017-11-18T10:13:21.439Z,98238.34
2017-11-18T10:14:28.491Z,98237.30
2017-11-18T10:15:33.613Z,98225.34
2017-11-18T10:16:38.673Z,98226.69
2017-11-18T10:17:44.212Z,98217.95
2017-11-18T10:18:49.390Z,98217.13
2017-11-18T10:19:54.480Z,98223.88
2017-11-18T10:20:59.690Z,98222.50
2017-11-18T10:22:04.783Z,98220.94
2017-11-18T10:23:09.933Z,98217.20
2017-11-18T10:24:15.289Z,98223.91
2017-11-18T10:25:20.256Z,98216.63
2017-11-18T10:26:25.442Z,98211.80
2017-11-18T10:27:30.602Z,98209.36
2017-11-18T10:28:35.754Z,98208.83
2017-11-18T10:29:40.916Z,98197.96
2017-11-18T10:30:46.266Z,98200.55
2017-11-18T10:31:51.500Z,98207.86
2017-11-18T10:32:56.799Z,98205.50
2017-11-18T10:34:01.903Z,98202.45
2017-11-18T10:35:07.517Z,98203.12
2017-11-18T10:36:12.637Z,98199.05
2017-11-18T10:37:17.722Z,98205.56
2017-11-18T10:38:22.983Z,98196.16
2017-11-18T10:39:28.199Z,98193.98
2017-11-18T10:40:33.357Z,98195.19
2017-11-18T10:41:38.524Z,98193.55
2017-11-18T10:42:43.659Z,98187.91
2017-11-18T10:43:49.140Z,98192.28
2017-11-18T10:44:54.221Z,98202.13
2017-11-18T10:45:59.329Z,98194.83
2017-11-18T10:47:04.501Z,98193.16
2017-11-18T10:48:09.552Z,98193.91
2017-11-18T10:49:14.646Z,98187.85
2017-11-18T10:50:20.029Z,98186.63
2017-11-18T10:51:25.299Z,98193.53
2017-11-18T10:52:30.476Z,98191.17
2017-11-18T10:53:35.824Z,98194.98
2017-11-18T10:54:41.006Z,98199.19
2017-11-18T10:55:46.294Z,98191.38
2017-11-18T10:56:51.735Z,98189.89
2017-11-18T10:57:56.917Z,98180.45
2017-11-18T10:59:02.014Z,98182.02
2017-11-18T11:15:18.534Z,98160.65
2017-11-18T11:16:24.431Z,98162.00
2017-11-18T11:17:29.649Z,98159.44
2017-11-18T11:18:35.009Z,98156.05
2017-11-18T11:19:40.362Z,98154.00
2017-11-18T11:20:46.046Z,98146.89
2017-11-18T11:21:51.324Z,98145.38
2017-11-18T11:22:56.598Z,98145.33
2017-11-18T11:24:01.859Z,98148.59
2017-11-18T11:25:07.311Z,98141.23
2017-11-18T11:26:12.562Z,98147.08
2017-11-18T11:27:18.329Z,98143.61
2017-11-18T11:28:23.488Z,98138.80
2017-11-18T11:29:28.712Z,98137.91
2017-11-18T11:30:34.159Z,98136.50
2017-11-18T11:31:39.387Z,98131.88
2017-11-18T11:32:44.736Z,98139.14
2017-11-18T11:33:50.271Z,98136.13
2017-11-18T11:34:55.444Z,98134.17
2017-11-18T11:36:00.723Z,98135.92
2017-11-18T11:37:06.071Z,98135.86
2017-11-18T11:38:11.213Z,98134.58
2017-11-18T11:39:16.341Z,98139.06
2017-11-18T11:40:21.819Z,98142.37
2017-11-18T11:41:27.022Z,98136.95
2017-11-18T11:42:32.213Z,98120.01
2017-11-18T11:43:37.533Z,98133.39
2017-11-18T11:44:42.948Z,98116.35
2017-11-18T11:45:48.335Z,98126.10
2017-11-18T11:46:53.963Z,98123.73
2017-11-18T11:47:59.471Z,98124.13
2017-11-18T11:49:04.676Z,98119.03
2017-11-18T11:50:09.708Z,98120.29
2017-11-18T11:51:14.689Z,98116.56
2017-11-18T11:52:19.729Z,98106.16
2017-11-18T11:53:25.834Z,98100.52
2017-11-18T11:54:31.078Z,98114.91
2017-11-18T11:55:36.235Z,98111.67
2017-11-18T11:56:41.174Z,98103.54
2017-11-18T11:57:46.120Z,98100.39
2017-11-18T11:58:51.060Z,98099.56
2017-11-18T11:59:56.302Z,98096.20
2017-11-18T12:01:01.364Z,98106.34
2017-11-18T12:02:06.331Z,98099.30
2017-11-18T12:03:11.371Z,98100.63
2017-11-18T12:04:16.372Z,98098.39
2017-11-18T12:05:21.350Z,98093.25
2017-11-18T12:06:26.362Z,98097.66
2017-11-18T12:07:31.490Z,98091.34
2017-11-18T12:08:36.581Z,98091.20
2017-11-18T12:09:41.726Z,98097.22
2017-11-18T12:10:48.621Z,98086.12
2017-11-18T12:11:54.356Z,98079.39
2017-11-18T12:12:59.486Z,98080.06
2017-11-18T12:14:05.525Z,98081.81
2017-11-18T12:15:10.568Z,98085.13
2017-11-18T12:16:15.677Z,98081.14
2017-11-18T12:17:20.831Z,98077.26
2017-11-18T12:18:26.468Z,98072.44
2017-11-18T12:19:31.883Z,98070.66
2017-11-18T12:20:37.057Z,98069.41
2017-11-18T12:21:42.318Z,98079.28
2017-11-18T12:22:48.399Z,98073.75
2017-11-18T12:23:53.394Z,98072.47
2017-11-18T12:24:58.657Z,98070.05
2017-11-18T12:26:03.790Z,98078.72
2017-11-18T12:27:09.000Z,98074.84
2017-11-18T12:28:14.238Z,98070.66
2017-11-18T12:29:19.301Z,98070.75
2017-11-18T12:30:24.346Z,98076.73
2017-11-18T12:31:29.478Z,98080.80
2017-11-18T12:32:35.432Z,98080.11
2017-11-18T12:33:40.468Z,98073.07
2017-11-18T12:34:47.134Z,98067.21
2017-11-18T12:35:54.820Z,98068.01
2017-11-18T12:37:06.902Z,98076.58
2017-11-18T12:38:18.576Z,98068.13
2017-11-18T12:39:24.192Z,98066.47
2017-11-18T12:40:29.228Z,98073.07
2017-11-18T12:41:34.588Z,98064.30
2017-11-18T12:42:40.969Z,98065.70
2017-11-18T12:43:46.256Z,98057.30
2017-11-18T12:44:51.617Z,98056.27
2017-11-18T12:45:56.640Z,98058.33
2017-11-18T12:47:02.211Z,98063.64
2017-11-18T12:48:07.250Z,98059.64
2017-11-18T12:49:12.452Z,98065.16
2017-11-18T12:50:17.557Z,98062.33
2017-11-18T12:51:22.513Z,98066.94
2017-11-18T12:52:27.598Z,98057.66
2017-11-18T12:53:32.741Z,98062.23
2017-11-18T12:54:37.697Z,98064.56
2017-11-18T12:55:43.084Z,98056.75
2017-11-18T12:56:48.017Z,98064.03
2017-11-18T12:57:53.030Z,98061.50
2017-11-18T12:58:57.978Z,98060.66
2017-11-18T13:00:03.117Z,98050.70
2017-11-18T13:01:08.197Z,98044.34
2017-11-18T13:02:13.637Z,98052.30
2017-11-18T13:03:18.801Z,98047.88
2017-11-18T13:04:23.777Z,98052.08
2017-11-18T13:05:29.357Z,98049.11
2017-11-18T13:06:34.478Z,98045.73
2017-11-18T13:07:39.762Z,98044.12
2017-11-18T13:08:45.173Z,98036.53
2017-11-18T13:09:50.657Z,98036.55
2017-11-18T13:10:55.710Z,98037.41
2017-11-18T13:12:00.678Z,98020.83
2017-11-18T13:13:05.687Z,98015.70
2017-11-18T13:14:10.759Z,98014.86
2017-11-18T13:15:16.603Z,98011.13
2017-11-18T13:16:21.681Z,98008.77
2017-11-18T13:17:26.785Z,98012.22
2017-11-18T13:18:31.862Z,97996.61
2017-11-18T13:19:36.840Z,97998.71
2017-11-18T13:20:41.923Z,98001.60
2017-11-18T13:21:47.305Z,97998.37
2017-11-18T13:22:52.334Z,97997.00
2017-11-18T13:23:57.545Z,97998.03
2017-11-18T13:25:02.586Z,98000.55
2017-11-18T13:26:07.629Z,98001.09
2017-11-18T13:27:12.876Z,97997.47
2017-11-18T13:28:18.296Z,98010.23
2017-11-18T13:29:23.316Z,97998.88
2017-11-18T13:30:29.509Z,97998.03
2017-11-18T13:31:34.565Z,97996.12